Time;durP1;ratioP1;P1;durP2;ratioP2;P2;SDS_P1;SDS_P2;PMS_P1;PMS_P2;Temp;Humidity;BMP_temperature;BMP_pressure;BME280_temperature;BME280_humidity;BME280_pressure;Samples;Min_cycle;Max_cycle;Signal;HPM_P1;HPM_P2
2021/11/09 00:00:40;;;;;;;1.97;1.60;;;8.40;99.90;;;;;;6238398;23;20161;-87
2021/11/09 00:03:09;;;;;;;7.50;2.83;;;8.40;99.90;;;;;;6237669;22;20193;-87
2021/11/09 00:05:48;;;;;;;4.77;2.53;;;8.40;99.90;;;;;;6187152;23;20296;-87
2021/11/09 00:08:19;;;;;;;4.97;2.63;;;8.40;99.90;;;;;;6213729;23;20205;-88
2021/11/09 00:10:45;;;;;;;3.77;1.50;;;8.30;99.90;;;;;;6212936;23;20652;-87
2021/11/09 00:13:12;;;;;;;2.40;2.20;;;8.30;99.90;;;;;;6185705;23;20224;-86
2021/11/09 00:15:38;;;;;;;4.93;2.57;;;8.30;99.90;;;;;;6211980;23;20157;-86
2021/11/09 00:18:04;;;;;;;2.83;2.37;;;8.30;99.90;;;;;;6237771;22;20189;-88
2021/11/09 00:20:33;;;;;;;5.93;2.83;;;8.20;99.90;;;;;;6237697;22;20201;-87
2021/11/09 00:23:01;;;;;;;11.27;3.10;;;8.30;99.90;;;;;;6236968;22;20535;-87
2021/11/09 00:25:28;;;;;;;2.60;2.37;;;8.30;99.90;;;;;;6211899;23;20209;-87
2021/11/09 00:27:54;;;;;;;5.40;2.80;;;8.20;99.90;;;;;;6209969;22;20157;-88
2021/11/09 00:30:22;;;;;;;4.37;2.33;;;8.20;99.90;;;;;;6208754;23;20184;-88
2021/11/09 00:32:48;;;;;;;4.50;3.20;;;8.20;99.90;;;;;;6184858;23;20197;-88
2021/11/09 00:35:19;;;;;;;4.07;2.70;;;8.20;99.90;;;;;;6211165;23;20201;-88
2021/11/09 00:37:46;;;;;;;12.80;2.27;;;8.20;99.90;;;;;;6210875;23;20229;-87
2021/11/09 00:40:14;;;;;;;6.13;2.43;;;8.20;99.90;;;;;;6237679;22;20576;-88
2021/11/09 00:42:40;;;;;;;6.47;2.77;;;8.20;99.90;;;;;;6211604;23;20172;-88
2021/11/09 00:45:10;;;;;;;7.00;3.50;;;8.20;99.90;;;;;;6211084;23;20276;-88
2021/11/09 00:47:35;;;;;;;6.27;2.77;;;8.10;99.90;;;;;;6210852;23;20539;-88
2021/11/09 00:50:03;;;;;;;8.37;2.77;;;8.10;99.90;;;;;;6186337;23;20641;-88
2021/11/09 00:52:29;;;;;;;2.97;2.10;;;8.10;99.90;;;;;;6209877;23;20954;-87
2021/11/09 00:54:55;;;;;;;2.60;2.30;;;8.20;99.90;;;;;;6211016;22;20778;-87
2021/11/09 00:57:21;;;;;;;7.90;3.17;;;8.10;99.90;;;;;;6185097;23;20158;-88
2021/11/09 00:59:48;;;;;;;3.57;2.47;;;8.10;99.90;;;;;;6235960;22;20274;-88
2021/11/09 01:02:26;;;;;;;8.17;3.13;;;8.10;99.90;;;;;;4964382;28;1353049;-86
2021/11/09 01:04:52;;;;;;;5.40;3.00;;;8.10;99.90;;;;;;4974753;28;20223;-85
2021/11/09 01:07:18;;;;;;;4.90;2.70;;;8.10;99.90;;;;;;4992833;28;20227;-87
2021/11/09 01:09:44;;;;;;;6.23;3.37;;;8.10;99.90;;;;;;4976647;28;20231;-85
2021/11/09 01:12:10;;;;;;;2.97;2.67;;;8.10;99.90;;;;;;4993963;28;20199;-87
2021/11/09 01:14:37;;;;;;;8.07;2.97;;;8.10;99.90;;;;;;4993979;28;21190;-86
2021/11/09 01:17:03;;;;;;;9.80;2.77;;;8.10;99.90;;;;;;4958688;28;20230;-85
2021/11/09 01:19:32;;;;;;;3.57;2.90;;;8.00;99.90;;;;;;4967691;28;20219;-87
2021/11/09 01:21:59;;;;;;;5.17;2.17;;;8.00;99.90;;;;;;4984416;28;20592;-86
2021/11/09 01:24:25;;;;;;;3.47;2.47;;;8.00;99.90;;;;;;4992489;28;20649;-87
2021/11/09 01:26:51;;;;;;;8.27;3.73;;;8.00;99.90;;;;;;4991473;28;20298;-87
2021/11/09 01:29:17;;;;;;;5.73;1.63;;;7.90;99.90;;;;;;4974508;28;20228;-87
2021/11/09 01:31:43;;;;;;;3.77;2.77;;;8.00;99.90;;;;;;4991866;28;20846;-85
2021/11/09 01:34:09;;;;;;;5.57;2.67;;;7.90;99.90;;;;;;4974158;28;20539;-85
2021/11/09 01:36:35;;;;;;;6.90;3.27;;;8.00;99.90;;;;;;4990958;28;20715;-85
2021/11/09 01:39:02;;;;;;;10.23;3.40;;;8.00;99.90;;;;;;4991262;28;21019;-85
2021/11/09 01:41:28;;;;;;;3.37;3.17;;;8.00;99.90;;;;;;4992986;28;20235;-85
2021/11/09 01:43:55;;;;;;;8.53;3.43;;;8.00;99.90;;;;;;4992675;28;20243;-85
2021/11/09 01:46:21;;;;;;;6.90;3.07;;;8.00;99.90;;;;;;4982813;28;20227;-86
2021/11/09 01:48:48;;;;;;;11.80;4.43;;;8.00;99.90;;;;;;4989497;28;20211;-85
2021/11/09 01:51:17;;;;;;;19.07;3.53;;;8.00;99.90;;;;;;4992198;28;20203;-87
2021/11/09 01:53:46;;;;;;;3.07;2.87;;;8.00;99.90;;;;;;4991515;28;20231;-86
2021/11/09 01:56:15;;;;;;;14.90;3.27;;;7.90;99.90;;;;;;4989895;28;20224;-86
2021/11/09 01:58:42;;;;;;;10.23;3.50;;;7.90;99.90;;;;;;4991242;28;20752;-85
2021/11/09 02:01:11;;;;;;;8.73;3.77;;;7.90;99.90;;;;;;4986286;28;20326;-85
2021/11/09 02:03:40;;;;;;;8.23;3.67;;;7.90;99.90;;;;;;5011066;28;20242;-84
2021/11/09 02:06:06;;;;;;;2.67;2.47;;;7.90;99.90;;;;;;5017385;28;20223;-84
2021/11/09 02:08:32;;;;;;;3.83;2.70;;;7.90;99.90;;;;;;5026683;28;20227;-85
2021/11/09 02:10:58;;;;;;;3.53;2.90;;;7.90;99.90;;;;;;5010199;28;20231;-84
2021/11/09 02:13:25;;;;;;;3.77;3.10;;;7.90;99.90;;;;;;4997783;28;20247;-86
2021/11/09 02:15:51;;;;;;;3.93;2.50;;;7.90;99.90;;;;;;4989121;28;20225;-85
2021/11/09 02:18:19;;;;;;;11.70;2.83;;;7.80;99.90;;;;;;4998380;28;20416;-87
2021/11/09 02:20:57;;;;;;;3.93;3.57;;;7.80;99.90;;;;;;4989117;28;20298;-87
2021/11/09 02:23:25;;;;;;;3.80;3.47;;;7.80;99.90;;;;;;4997877;28;20317;-86
2021/11/09 02:25:51;;;;;;;12.03;4.33;;;7.80;99.90;;;;;;4980234;28;20630;-86
2021/11/09 02:28:17;;;;;;;3.37;2.77;;;7.80;99.90;;;;;;4981084;28;20296;-86
2021/11/09 02:30:44;;;;;;;8.10;3.93;;;7.80;99.90;;;;;;4981267;28;20191;-81
2021/11/09 02:33:10;;;;;;;10.03;2.83;;;7.80;99.90;;;;;;4981390;28;20804;-87
2021/11/09 02:35:37;;;;;;;6.53;2.67;;;7.80;99.90;;;;;;4999002;28;20593;-87
2021/11/09 02:38:05;;;;;;;3.30;2.80;;;7.90;99.90;;;;;;4997866;28;20728;-86
2021/11/09 02:40:32;;;;;;;6.70;3.17;;;7.90;99.90;;;;;;4996834;28;20611;-86
2021/11/09 02:43:02;;;;;;;12.50;3.40;;;7.80;99.90;;;;;;4995518;28;20194;-86
2021/11/09 02:45:48;;;;;;;5.33;3.47;;;7.80;99.90;;;;;;4994504;28;20245;-86
2021/11/09 02:48:28;;;;;;;20.60;4.33;;;7.80;99.90;;;;;;4991809;28;20216;-85
2021/11/09 02:53:50;;;;;;;3.90;3.47;;;7.80;99.90;;;;;;4990743;28;20216;-84
2021/11/09 02:56:27;;;;;;;5.03;2.97;;;7.80;99.90;;;;;;4979021;28;20334;-85
2021/11/09 03:09:42;;;;;;;9.83;2.63;;;7.70;99.90;;;;;;4926036;28;20231;-85
2021/11/09 03:12:10;;;;;;;3.97;1.97;;;7.70;99.90;;;;;;4995703;28;20220;-85
2021/11/09 03:14:36;;;;;;;4.77;2.33;;;7.70;99.90;;;;;;4980159;28;20220;-84
2021/11/09 03:17:10;;;;;;;8.10;2.87;;;7.70;99.90;;;;;;4977148;28;20306;-84
2021/11/09 03:19:40;;;;;;;2.87;2.27;;;7.70;99.90;;;;;;4995046;28;20293;-85
2021/11/09 03:47:01;;;;;;;4.23;3.03;;;7.60;99.90;;;;;;4996659;28;20686;-84
2021/11/09 03:49:30;;;;;;;4.10;3.10;;;7.60;99.90;;;;;;4995558;28;20692;-86
2021/11/09 03:51:58;;;;;;;2.43;2.30;;;7.60;99.90;;;;;;4979005;28;20207;-84
2021/11/09 03:54:28;;;;;;;5.97;2.20;;;7.70;99.90;;;;;;4995481;28;20196;-86
2021/11/09 03:57:04;;;;;;;5.87;3.03;;;7.60;99.90;;;;;;4979552;28;20239;-86
2021/11/09 04:07:02;;;;;;;2.27;1.77;;;7.60;99.90;;;;;;4994840;28;20756;-86
2021/11/09 04:09:39;;;;;;;5.43;4.10;;;7.60;99.90;;;;;;4994309;28;20195;-86
2021/11/09 04:12:48;;;;;;;3.13;2.30;;;7.60;99.90;;;;;;4996052;28;20226;-86
2021/11/09 04:18:08;;;;;;;4.30;2.77;;;7.70;99.90;;;;;;4993188;28;20228;-84
2021/11/09 04:21:36;;;;;;;6.83;3.07;;;7.70;99.90;;;;;;4996601;28;20326;-87
2021/11/09 04:34:32;;;;;;;6.10;3.47;;;7.90;99.90;;;;;;4994960;28;20282;-87
2021/11/09 05:08:16;;;;;;;4.53;4.20;;;7.80;99.90;;;;;;4996523;28;20252;-87
2021/11/09 05:09:07;;;;;;;5.33;3.30;;;7.80;99.90;;;;;;4994915;28;20354;-86
2021/11/09 05:11:34;;;;;;;4.43;4.00;;;7.70;99.90;;;;;;4992971;28;20238;-85
2021/11/09 05:13:59;;;;;;;5.63;3.63;;;7.70;99.90;;;;;;4997239;28;20779;-85
2021/11/09 05:16:25;;;;;;;3.60;2.73;;;7.70;99.90;;;;;;4994727;28;20238;-84
2021/11/09 05:18:51;;;;;;;3.47;2.93;;;7.70;99.90;;;;;;4992692;28;20199;-87
2021/11/09 05:21:16;;;;;;;5.37;3.13;;;7.70;99.90;;;;;;4979901;28;20752;-86
2021/11/09 05:23:42;;;;;;;3.50;3.13;;;7.80;99.90;;;;;;4992318;28;20227;-86
2021/11/09 05:26:08;;;;;;;9.90;4.60;;;7.70;99.90;;;;;;4977060;28;20237;-86
2021/11/09 05:28:34;;;;;;;5.40;3.80;;;7.70;99.90;;;;;;4979697;28;20345;-85
2021/11/09 05:31:00;;;;;;;7.23;4.20;;;7.70;99.90;;;;;;4993891;28;20286;-86
2021/11/09 05:33:27;;;;;;;5.67;3.37;;;7.70;99.90;;;;;;4994184;28;20200;-86
2021/11/09 05:35:55;;;;;;;7.73;3.90;;;7.70;99.90;;;;;;4993546;28;20224;-88
2021/11/09 05:38:27;;;;;;;9.17;5.00;;;7.70;99.90;;;;;;4995386;28;20219;-86
2021/11/09 05:41:02;;;;;;;7.53;3.50;;;7.70;99.90;;;;;;4979841;28;20235;-88
2021/11/09 05:43:30;;;;;;;15.13;3.97;;;7.70;99.90;;;;;;4993191;28;20219;-86
2021/11/09 05:45:56;;;;;;;8.20;4.50;;;7.70;99.90;;;;;;5002232;28;20191;-87
2021/11/09 05:48:22;;;;;;;5.33;4.20;;;7.70;99.90;;;;;;5001835;28;20327;-94
2021/11/09 05:50:49;;;;;;;12.10;4.80;;;7.70;99.90;;;;;;5001297;28;20219;-92
2021/11/09 05:53:16;;;;;;;6.97;3.53;;;7.70;99.90;;;;;;4999982;28;20496;-92
2021/11/09 05:55:42;;;;;;;7.90;3.13;;;7.70;99.90;;;;;;4999587;28;20231;-89
2021/11/09 05:58:08;;;;;;;6.13;4.37;;;7.70;99.90;;;;;;5000007;28;20215;-93
2021/11/09 06:00:34;;;;;;;9.27;4.50;;;7.80;99.90;;;;;;4998145;28;20223;-94
2021/11/09 06:03:00;;;;;;;4.40;4.00;;;7.70;99.90;;;;;;4999014;28;20231;-89
2021/11/09 06:05:25;;;;;;;10.97;3.87;;;7.70;99.90;;;;;;5001711;28;20219;-93
2021/11/09 06:07:51;;;;;;;9.90;4.13;;;7.70;99.90;;;;;;4992763;28;20220;-90
2021/11/09 06:10:17;;;;;;;12.03;5.53;;;7.70;99.90;;;;;;5008323;28;20216;-92
2021/11/09 06:12:43;;;;;;;6.00;4.53;;;7.70;99.90;;;;;;5010407;28;20454;-89
2021/11/09 06:15:11;;;;;;;8.53;3.27;;;7.80;99.90;;;;;;4987995;28;20226;-94
2021/11/09 06:17:39;;;;;;;5.90;3.67;;;7.80;99.90;;;;;;5004231;28;20212;-91
2021/11/09 06:20:06;;;;;;;14.07;5.10;;;7.80;99.90;;;;;;5008176;28;20227;-91
2021/11/09 06:22:32;;;;;;;4.13;3.57;;;7.80;99.90;;;;;;5002220;28;20231;-91
2021/11/09 06:24:58;;;;;;;6.90;5.03;;;7.80;99.90;;;;;;5002850;28;20183;-91
2021/11/09 06:27:24;;;;;;;5.67;3.80;;;7.70;99.90;;;;;;5000109;28;20198;-93
2021/11/09 06:29:51;;;;;;;6.87;4.33;;;7.70;99.90;;;;;;4999895;28;20685;-94
2021/11/09 06:32:17;;;;;;;5.07;4.47;;;7.70;99.90;;;;;;5016180;28;20227;-93
2021/11/09 06:34:44;;;;;;;17.60;5.20;;;7.70;99.90;;;;;;5001299;28;20228;-92
2021/11/09 06:37:10;;;;;;;8.43;4.37;;;7.70;99.90;;;;;;5007022;28;20410;-92
2021/11/09 06:39:36;;;;;;;6.10;3.93;;;7.70;99.90;;;;;;4997465;28;20184;-94
2021/11/09 06:42:03;;;;;;;7.50;4.90;;;7.70;99.90;;;;;;4981874;28;20230;-92
2021/11/09 06:44:29;;;;;;;17.07;3.00;;;7.80;99.90;;;;;;4985717;28;20559;-93
2021/11/09 06:46:55;;;;;;;7.63;4.07;;;7.80;99.90;;;;;;5004833;28;20215;-94
2021/11/09 06:49:22;;;;;;;22.40;5.37;;;7.80;99.90;;;;;;4995456;28;20231;-94
2021/11/09 06:51:50;;;;;;;9.87;4.47;;;7.80;99.90;;;;;;5000868;28;20629;-95
2021/11/09 06:54:16;;;;;;;8.33;4.73;;;7.90;99.90;;;;;;5002548;28;20303;-91
2021/11/09 06:56:42;;;;;;;5.73;5.03;;;7.90;99.90;;;;;;4998442;28;20306;-89
2021/11/09 06:59:08;;;;;;;15.13;3.97;;;8.00;99.90;;;;;;4997212;28;20294;-90
2021/11/09 07:01:35;;;;;;;4.27;3.70;;;8.00;99.90;;;;;;4995924;28;20334;-89
2021/11/09 07:04:01;;;;;;;6.97;3.90;;;8.10;99.90;;;;;;4979132;28;20699;-93
2021/11/09 07:06:27;;;;;;;7.60;4.67;;;8.10;99.90;;;;;;4996269;28;20583;-92
2021/11/09 07:08:53;;;;;;;6.70;4.43;;;8.20;99.90;;;;;;4996856;28;20349;-93
2021/11/09 07:11:19;;;;;;;11.97;6.40;;;8.30;99.90;;;;;;4969620;28;20219;-94
2021/11/09 07:13:46;;;;;;;9.33;3.70;;;8.20;99.90;;;;;;4996662;28;20219;-90
2021/11/09 07:16:14;;;;;;;7.10;4.27;;;8.20;99.90;;;;;;4995237;28;20365;-88
2021/11/09 07:18:40;;;;;;;11.10;5.80;;;8.20;99.90;;;;;;4995832;28;20215;-89
2021/11/09 07:21:06;;;;;;;17.20;5.73;;;8.30;99.90;;;;;;4998775;28;20887;-91
2021/11/09 07:23:32;;;;;;;13.73;6.00;;;8.30;99.90;;;;;;4996093;28;20222;-88
2021/11/09 07:25:58;;;;;;;18.50;5.40;;;8.30;99.90;;;;;;4981580;28;20266;-90
2021/11/09 07:28:23;;;;;;;12.90;4.23;;;8.30;99.90;;;;;;4976587;28;20306;-92
2021/11/09 07:31:02;;;;;;;10.40;6.00;;;8.40;99.90;;;;;;4996161;28;20200;-91
2021/11/09 07:33:28;;;;;;;9.23;4.80;;;8.50;99.90;;;;;;4996509;28;20210;-90
2021/11/09 07:35:53;;;;;;;5.33;3.57;;;8.60;99.90;;;;;;4977429;28;20213;-87
2021/11/09 07:38:19;;;;;;;6.30;4.27;;;8.60;99.90;;;;;;4995345;28;20579;-88
2021/11/09 07:40:46;;;;;;;10.70;4.13;;;8.60;99.90;;;;;;4978701;28;20243;-88
2021/11/09 07:43:12;;;;;;;7.77;4.30;;;8.70;99.90;;;;;;4994881;28;20243;-87
2021/11/09 07:45:39;;;;;;;10.67;6.70;;;8.80;99.90;;;;;;4995243;28;20617;-91
2021/11/09 07:48:06;;;;;;;19.20;5.07;;;8.80;99.90;;;;;;4993412;28;20492;-90
2021/11/09 07:50:32;;;;;;;13.57;5.43;;;8.90;99.90;;;;;;4979726;28;20458;-90
2021/11/09 07:52:59;;;;;;;10.43;4.77;;;9.00;99.90;;;;;;4993062;28;20271;-88
2021/11/09 07:55:27;;;;;;;10.63;4.37;;;9.00;99.90;;;;;;4997234;28;20235;-87
2021/11/09 07:57:59;;;;;;;17.37;6.00;;;9.00;99.90;;;;;;4992322;28;20207;-88
2021/11/09 08:00:36;;;;;;;7.07;3.60;;;9.10;99.90;;;;;;4996275;28;20226;-91
2021/11/09 08:08:37;;;;;;;4.57;4.00;;;9.20;99.90;;;;;;4959657;28;20231;-88
2021/11/09 08:11:03;;;;;;;7.83;5.30;;;9.20;99.90;;;;;;4994388;28;20571;-86
2021/11/09 08:13:29;;;;;;;6.20;3.73;;;9.30;99.90;;;;;;4975266;28;20306;-88
2021/11/09 08:15:55;;;;;;;9.57;4.53;;;9.30;99.90;;;;;;4979538;28;20677;-87
2021/11/09 08:18:20;;;;;;;8.60;4.90;;;9.40;99.90;;;;;;4995481;28;20195;-85
2021/11/09 08:20:46;;;;;;;10.63;4.43;;;9.40;99.90;;;;;;4995088;28;20320;-84
2021/11/09 08:23:12;;;;;;;5.57;4.03;;;9.40;99.90;;;;;;4992424;28;20756;-86
2021/11/09 08:25:39;;;;;;;9.33;5.60;;;9.40;99.90;;;;;;4986310;28;20230;-86
2021/11/09 08:28:04;;;;;;;11.50;4.47;;;9.40;99.90;;;;;;5007322;28;20203;-86
2021/11/09 08:30:31;;;;;;;15.93;6.07;;;9.50;99.90;;;;;;4989409;28;20191;-85
2021/11/09 08:32:59;;;;;;;4.90;3.03;;;9.40;99.90;;;;;;4976260;28;20216;-89
2021/11/09 08:35:26;;;;;;;12.33;4.43;;;9.40;99.90;;;;;;4978540;28;21229;-86
2021/11/09 08:37:52;;;;;;;8.13;5.50;;;9.40;99.90;;;;;;4994483;28;20823;-88
2021/11/09 08:40:21;;;;;;;11.77;4.70;;;9.40;99.90;;;;;;4994548;28;20712;-87
2021/11/09 08:42:58;;;;;;;16.97;5.57;;;9.40;99.90;;;;;;4995189;28;20196;-87
2021/11/09 08:45:44;;;;;;;12.57;5.00;;;9.40;99.90;;;;;;4992923;28;20191;-87
2021/11/09 08:48:13;;;;;;;11.57;4.53;;;9.40;99.90;;;;;;4992352;28;20218;-86
2021/11/09 08:50:40;;;;;;;17.30;5.97;;;9.40;99.90;;;;;;4992898;28;20693;-86
2021/11/09 08:53:11;;;;;;;7.40;4.67;;;9.40;99.90;;;;;;4975920;28;20246;-87
2021/11/09 08:56:11;;;;;;;5.40;4.27;;;9.50;99.90;;;;;;4994653;28;20220;-86
2021/11/09 09:06:13;;;;;;;16.77;5.30;;;9.70;99.90;;;;;;4991265;28;20219;-87
2021/11/09 09:08:39;;;;;;;13.40;5.70;;;9.80;99.90;;;;;;4976357;28;20640;-86
2021/11/09 09:11:04;;;;;;;11.07;5.83;;;9.80;99.90;;;;;;4977427;28;20696;-87
2021/11/09 09:13:30;;;;;;;8.63;4.67;;;9.90;99.90;;;;;;4992015;28;20259;-86
2021/11/09 09:15:57;;;;;;;9.80;4.70;;;9.90;99.90;;;;;;4990541;28;20273;-84
2021/11/09 09:18:23;;;;;;;11.10;5.70;;;9.90;99.90;;;;;;4990185;28;20254;-86
2021/11/09 09:20:56;;;;;;;9.37;5.90;;;10.00;99.90;;;;;;4993246;28;20697;-86
2021/11/09 09:23:26;;;;;;;5.07;4.23;;;10.10;99.90;;;;;;4999535;28;20223;-86
2021/11/09 09:31:59;;;;;;;11.63;7.13;;;10.10;99.90;;;;;;4998987;28;20234;-87
2021/11/09 09:53:28;;;;;;;12.40;8.27;;;10.10;99.90;;;;;;4996863;28;20235;-87
2021/11/09 09:55:58;;;;;;;9.40;6.00;;;10.20;99.90;;;;;;4996385;28;20305;-86
2021/11/09 09:58:24;;;;;;;10.87;6.97;;;10.10;99.90;;;;;;4998628;28;20222;-91
2021/11/09 10:00:51;;;;;;;13.83;5.47;;;10.10;99.90;;;;;;4997373;28;20230;-88
2021/11/09 10:03:16;;;;;;;7.87;6.07;;;10.20;99.90;;;;;;4997017;28;20580;-91
2021/11/09 10:05:43;;;;;;;12.53;6.90;;;10.20;99.90;;;;;;4996355;28;20216;-88
2021/11/09 10:08:15;;;;;;;9.30;6.60;;;10.30;99.90;;;;;;4997754;28;20234;-92
2021/11/09 10:10:42;;;;;;;10.87;7.17;;;10.30;99.90;;;;;;5004420;28;20701;-91
2021/11/09 10:13:13;;;;;;;13.10;8.00;;;10.20;99.90;;;;;;5002975;28;20230;-90
2021/11/09 10:15:51;;;;;;;12.20;6.27;;;10.30;99.90;;;;;;4997739;28;20192;-91
2021/11/09 10:18:19;;;;;;;18.73;9.47;;;10.30;99.90;;;;;;4995978;28;20219;-91
2021/11/09 10:20:47;;;;;;;12.67;6.73;;;10.40;99.90;;;;;;4980846;28;20238;-92
2021/11/09 10:23:26;;;;;;;16.90;5.80;;;10.40;99.90;;;;;;4996760;28;20216;-92
2021/11/09 10:25:59;;;;;;;9.27;6.30;;;10.40;99.90;;;;;;4987807;28;20222;-89
2021/11/09 10:28:26;;;;;;;19.93;8.43;;;10.40;99.90;;;;;;4995792;28;20223;-89
2021/11/09 10:30:58;;;;;;;14.83;6.13;;;10.50;99.90;;;;;;4995654;28;20685;-91
2021/11/09 10:33:26;;;;;;;19.13;7.70;;;10.60;99.90;;;;;;4997028;28;20210;-93
2021/11/09 10:35:54;;;;;;;14.50;6.03;;;10.60;99.90;;;;;;4995323;28;20207;-92
2021/11/09 10:38:32;;;;;;;10.60;6.67;;;10.60;99.90;;;;;;4998988;28;20223;-92
2021/11/09 10:40:59;;;;;;;12.53;4.90;;;10.60;99.90;;;;;;5016691;28;20269;-88
2021/11/09 10:43:30;;;;;;;22.23;7.37;;;10.50;99.90;;;;;;5027530;28;20233;-86
2021/11/09 10:45:56;;;;;;;15.00;6.10;;;10.60;99.90;;;;;;5005184;28;20211;-92
2021/11/09 10:48:23;;;;;;;19.00;6.30;;;10.50;99.90;;;;;;4982092;28;20274;-94
2021/11/09 10:50:52;;;;;;;12.87;6.43;;;10.60;99.90;;;;;;4998365;28;20715;-95
2021/11/09 10:59:11;;;;;;;13.23;7.57;;;10.60;99.90;;;;;;4966392;28;20227;-90
2021/11/09 11:04:38;;;;;;;15.37;7.53;;;10.80;99.90;;;;;;4995348;28;20215;-88
2021/11/09 11:07:13;;;;;;;8.43;5.03;;;10.80;99.90;;;;;;4997086;28;20223;-88
2021/11/09 11:09:57;;;;;;;7.87;5.60;;;10.80;99.90;;;;;;5006212;28;20202;-93
2021/11/09 11:12:26;;;;;;;7.43;4.47;;;10.90;99.90;;;;;;4996359;28;20584;-88
2021/11/09 11:14:52;;;;;;;10.20;5.60;;;10.90;99.90;;;;;;4990902;28;20255;-92
2021/11/09 11:17:18;;;;;;;16.03;7.20;;;10.90;99.90;;;;;;5001435;28;20255;-90
2021/11/09 11:19:52;;;;;;;12.30;5.57;;;10.90;99.90;;;;;;5001305;28;20220;-88
2021/11/09 11:22:21;;;;;;;9.23;6.07;;;10.90;99.90;;;;;;5007214;28;20251;-89
2021/11/09 11:24:55;;;;;;;10.17;6.27;;;10.90;99.90;;;;;;5001716;28;20704;-89
2021/11/09 11:27:22;;;;;;;10.57;5.80;;;10.90;99.90;;;;;;4983534;28;20196;-88
2021/11/09 11:29:49;;;;;;;8.97;6.00;;;10.80;99.90;;;;;;5000425;28;20216;-92
2021/11/09 11:32:18;;;;;;;10.83;4.90;;;10.80;99.90;;;;;;5002058;28;20223;-90
2021/11/09 11:34:44;;;;;;;8.33;5.13;;;10.80;99.90;;;;;;5001804;28;20238;-89
2021/11/09 11:37:11;;;;;;;10.00;6.73;;;10.80;99.90;;;;;;5002865;28;20293;-91
2021/11/09 11:39:38;;;;;;;10.33;6.43;;;10.80;99.90;;;;;;4999108;28;20191;-89
2021/11/09 11:42:11;;;;;;;8.33;5.63;;;10.90;99.90;;;;;;4998664;28;20326;-91
2021/11/09 11:44:41;;;;;;;9.33;6.17;;;10.90;99.90;;;;;;5003608;28;20263;-90
2021/11/09 11:47:18;;;;;;;17.27;5.23;;;10.90;99.90;;;;;;4999583;28;20311;-89
2021/11/09 11:49:57;;;;;;;11.50;6.07;;;10.90;99.90;;;;;;4982833;28;20220;-91
2021/11/09 11:52:32;;;;;;;13.03;6.80;;;11.00;99.90;;;;;;5000693;28;20265;-87
2021/11/09 11:55:24;;;;;;;13.43;7.83;;;11.00;99.90;;;;;;5001436;28;20191;-91
2021/11/09 11:58:02;;;;;;;16.37;8.60;;;11.00;99.90;;;;;;4993601;28;20204;-91
2021/11/09 12:00:43;;;;;;;13.30;7.93;;;11.00;99.90;;;;;;4996880;28;20195;-91
2021/11/09 12:03:33;;;;;;;11.60;7.40;;;11.00;99.90;;;;;;4997912;28;20236;-91
2021/11/09 12:06:22;;;;;;;8.90;5.57;;;11.00;99.90;;;;;;4980358;28;20220;-87
2021/11/09 12:08:50;;;;;;;15.07;7.17;;;11.00;99.90;;;;;;4999455;28;20223;-87
2021/11/09 12:11:22;;;;;;;16.77;7.97;;;11.10;99.90;;;;;;5000465;28;20224;-88
2021/11/09 12:13:59;;;;;;;17.67;9.33;;;11.20;99.90;;;;;;5009498;28;20249;-90
2021/11/09 12:16:48;;;;;;;13.33;6.17;;;11.20;99.90;;;;;;5000375;28;20223;-87
2021/11/09 12:19:37;;;;;;;15.13;8.10;;;11.20;99.90;;;;;;5000235;28;20223;-89
2021/11/09 12:22:25;;;;;;;17.30;7.93;;;11.30;99.90;;;;;;5000543;28;20232;-86
2021/11/09 12:24:58;;;;;;;13.90;6.97;;;11.30;99.90;;;;;;5001689;28;20189;-87
2021/11/09 12:27:30;;;;;;;13.00;8.17;;;11.30;99.90;;;;;;5002134;28;20188;-86
2021/11/09 12:29:59;;;;;;;11.43;7.63;;;11.20;99.90;;;;;;5000201;28;20262;-86
2021/11/09 12:32:26;;;;;;;13.13;8.10;;;11.40;99.90;;;;;;5000498;28;20223;-87
2021/11/09 12:35:02;;;;;;;15.53;9.20;;;11.40;99.90;;;;;;5003128;28;20215;-88
2021/11/09 12:37:31;;;;;;;16.87;7.70;;;11.40;99.90;;;;;;4996093;28;20308;-87
2021/11/09 12:40:22;;;;;;;13.33;7.53;;;11.30;99.90;;;;;;4996934;28;20192;-88
2021/11/09 12:43:02;;;;;;;19.57;7.63;;;11.30;99.90;;;;;;4995315;28;20223;-90
2021/11/09 12:45:29;;;;;;;11.57;7.73;;;11.30;99.90;;;;;;5001455;28;20245;-91
2021/11/09 12:48:02;;;;;;;12.67;7.77;;;11.40;99.90;;;;;;4996086;28;20514;-88
2021/11/09 12:50:28;;;;;;;20.53;9.70;;;11.30;99.90;;;;;;4995965;28;20245;-87
2021/11/09 12:53:12;;;;;;;12.40;8.63;;;11.30;99.90;;;;;;4995831;28;20306;-87
2021/11/09 12:55:40;;;;;;;15.47;8.23;;;11.30;99.90;;;;;;4986644;28;20234;-88
2021/11/09 12:58:22;;;;;;;12.27;6.07;;;11.30;99.90;;;;;;4996493;28;20265;-89
2021/11/09 13:10:07;;;;;;;21.90;7.13;;;11.30;99.90;;;;;;4961796;28;20196;-88
2021/11/09 13:12:35;;;;;;;9.43;6.03;;;11.30;99.90;;;;;;4985448;28;20338;-89
2021/11/09 13:15:13;;;;;;;17.90;7.83;;;11.40;99.90;;;;;;4995973;28;20211;-88
2021/11/09 13:17:48;;;;;;;12.80;7.93;;;11.40;99.90;;;;;;4995626;28;20771;-87
2021/11/09 13:23:03;;;;;;;19.80;7.60;;;11.40;99.90;;;;;;4992777;28;20258;-88
2021/11/09 13:25:31;;;;;;;13.13;6.53;;;11.30;99.90;;;;;;4994641;28;20227;-86
2021/11/09 13:27:57;;;;;;;10.57;6.50;;;11.30;99.90;;;;;;4994071;28;20585;-86
2021/11/09 13:30:25;;;;;;;16.17;6.93;;;11.40;99.90;;;;;;4994249;28;20257;-87
2021/11/09 13:32:57;;;;;;;15.00;6.20;;;11.40;99.90;;;;;;4992292;28;20281;-89
2021/11/09 13:35:27;;;;;;;14.70;6.67;;;11.30;99.90;;;;;;5000008;28;20219;-88
2021/11/09 13:38:13;;;;;;;14.87;7.70;;;11.30;99.90;;;;;;4989480;28;20216;-88
2021/11/09 13:40:43;;;;;;;12.30;5.30;;;11.30;99.90;;;;;;4993693;28;20228;-88
2021/11/09 13:43:12;;;;;;;8.53;6.00;;;11.30;99.90;;;;;;4993610;28;20226;-89
2021/11/09 13:45:39;;;;;;;12.70;6.90;;;11.30;99.90;;;;;;4992321;28;20214;-85
2021/11/09 13:48:20;;;;;;;14.73;6.93;;;11.30;99.90;;;;;;4992384;28;20219;-87
2021/11/09 13:50:49;;;;;;;12.57;7.67;;;11.20;99.90;;;;;;4994247;28;20241;-85
2021/11/09 13:53:24;;;;;;;20.00;7.03;;;11.30;99.90;;;;;;4993489;28;20220;-86
2021/11/09 13:55:50;;;;;;;13.20;6.73;;;11.20;99.90;;;;;;4994646;28;20218;-85
2021/11/09 13:58:17;;;;;;;16.60;8.87;;;11.20;99.90;;;;;;4996146;28;20219;-86
2021/11/09 14:00:47;;;;;;;17.80;6.27;;;11.20;99.90;;;;;;4975913;28;20290;-85
2021/11/09 14:18:57;;;;;;;13.80;5.40;;;11.10;99.90;;;;;;4996920;28;20278;-87
2021/11/09 14:21:31;;;;;;;13.20;6.30;;;11.10;99.90;;;;;;5002475;28;20224;-89
2021/11/09 14:24:07;;;;;;;12.27;7.80;;;11.10;99.90;;;;;;4998944;28;20578;-88
2021/11/09 14:26:33;;;;;;;18.23;5.73;;;11.20;99.90;;;;;;4996400;28;20239;-87
2021/11/09 14:28:59;;;;;;;12.13;5.93;;;11.10;99.90;;;;;;4995470;28;20313;-88
2021/11/09 14:31:32;;;;;;;10.20;7.13;;;11.10;99.90;;;;;;4995184;28;20247;-87
2021/11/09 14:34:19;;;;;;;15.83;6.07;;;11.10;99.90;;;;;;4986910;28;20705;-86
2021/11/09 14:36:47;;;;;;;5.10;3.73;;;11.10;99.90;;;;;;4987252;28;20251;-87
2021/11/09 14:39:21;;;;;;;14.40;6.37;;;11.10;99.90;;;;;;4995971;28;20206;-86
2021/11/09 14:45:19;;;;;;;9.67;5.50;;;11.00;99.90;;;;;;4997325;28;20212;-87
2021/11/09 14:47:51;;;;;;;15.50;5.37;;;11.00;99.90;;;;;;4992467;28;20278;-87
2021/11/09 14:50:29;;;;;;;9.30;5.63;;;11.00;99.90;;;;;;4993716;28;20274;-88
2021/11/09 14:53:16;;;;;;;6.10;4.60;;;10.90;99.90;;;;;;4995348;28;20329;-88
2021/11/09 14:55:49;;;;;;;14.97;6.70;;;11.00;99.90;;;;;;4996704;28;20211;-88
2021/11/09 14:58:40;;;;;;;22.90;6.27;;;11.00;99.90;;;;;;4995985;28;20353;-88
2021/11/09 15:01:29;;;;;;;9.43;6.00;;;10.90;99.90;;;;;;4993485;28;20235;-87
2021/11/09 15:04:04;;;;;;;14.67;7.37;;;10.90;99.90;;;;;;5003349;28;20323;-87
2021/11/09 15:12:19;;;;;;;15.07;9.07;;;10.90;99.90;;;;;;4993165;28;20219;-86
2021/11/09 15:25:49;;;;;;;17.97;10.83;;;10.90;99.90;;;;;;4996585;28;20231;-84
2021/11/09 15:28:18;;;;;;;15.50;8.73;;;10.90;99.90;;;;;;4978276;28;20302;-88
2021/11/09 15:34:05;;;;;;;15.33;9.80;;;10.90;99.90;;;;;;4993533;28;20245;-87
2021/11/09 15:38:50;;;;;;;18.20;9.30;;;11.00;99.90;;;;;;4992076;28;20365;-88
2021/11/09 15:41:17;;;;;;;10.93;7.07;;;11.00;99.90;;;;;;4992277;28;20231;-86
2021/11/09 15:43:44;;;;;;;11.60;7.20;;;10.90;99.90;;;;;;4992943;28;20226;-87
2021/11/09 15:46:11;;;;;;;16.13;8.43;;;10.90;99.90;;;;;;4995945;28;20212;-87
2021/11/09 15:48:37;;;;;;;8.60;6.43;;;10.90;99.90;;;;;;4996064;28;20202;-87
2021/11/09 15:51:04;;;;;;;23.70;11.77;;;10.90;99.90;;;;;;4993756;28;20227;-84
2021/11/09 15:53:30;;;;;;;18.13;8.20;;;10.90;99.90;;;;;;4995372;28;20235;-84
2021/11/09 15:56:00;;;;;;;14.20;10.67;;;11.00;99.90;;;;;;4976453;28;20254;-84
2021/11/09 15:58:27;;;;;;;13.33;10.00;;;11.00;99.90;;;;;;4995301;28;20224;-85
2021/11/09 16:00:53;;;;;;;15.87;6.23;;;11.00;99.90;;;;;;4992805;28;20195;-83
2021/11/09 16:03:19;;;;;;;10.07;6.90;;;11.00;99.90;;;;;;4993805;28;20243;-84
2021/11/09 16:05:50;;;;;;;14.27;7.93;;;11.00;99.90;;;;;;4995774;28;20223;-85
2021/11/09 16:08:16;;;;;;;18.03;9.63;;;11.00;99.90;;;;;;4986479;28;20216;-84
2021/11/09 16:10:43;;;;;;;17.20;8.70;;;11.00;99.90;;;;;;4976790;28;20223;-85